CPE7 weather

CLOSED New Lowell Airport
New Lowell, Ontario, Canada

Public forecast

Using degrees Celsius for public forecast. Weather courtesy of forecast.io.

Closest aviation weather report (METAR) to New Lowell Airport

Closest report is CFB Borden, 7.1 nm (13.1 km) S. Retrieved 2019/10/18 07:00 UTC (48 minutes ago):

CYBN 180700Z AUTO 33005KT 9SM FEW034 05/02 A2988 RMK SLP125

Closest aviation forecast (TAF) to New Lowell Airport

Forecast is more than 6 hours old.

Closest forecast is CFB Borden, 7.1 nm (13.1 km) S. Retrieved 2019-10-18 00:33 UTC (7 hours ago):

TAF TAF CYBN 172330Z 1800/1812 33010G20KT 6SM -RA -DZ BR OVC020 TEMPO 1800/1802 P6SM NSW OVC025 FM180200 33008G18KT P6SM SCT010 BKN020 TEMPO 1802/1808 BKN025 BECMG 1808/1810 33010KT RMK FCST BASED ON AUTO OBS NXT FCST BY 180600Z